Time;durP1;ratioP1;P1;durP2;ratioP2;P2;SDS_P1;SDS_P2;PMS_P1;PMS_P2;Temp;Humidity;BMP_temperature;BMP_pressure;BME280_temperature;BME280_humidity;BME280_pressure;Samples;Min_cycle;Max_cycle;Signal;HPM_P1;HPM_P2
2022/08/14 00:00:55;;;;;;;24.92;15.05;;;;;;;20.15;100.00;99809.66;1776454;80;21017;-68
2022/08/14 00:03:26;;;;;;;22.50;14.83;;;;;;;20.16;100.00;99804.69;1776332;80;21033;-68
2022/08/14 00:05:53;;;;;;;21.75;14.87;;;;;;;20.15;100.00;99801.63;1776522;80;21080;-69
2022/08/14 00:08:20;;;;;;;20.85;14.03;;;;;;;20.17;100.00;99809.04;1776432;80;21096;-68
2022/08/14 00:10:47;;;;;;;27.65;14.80;;;;;;;20.18;100.00;99812.09;1776714;80;21255;-68
2022/08/14 00:13:15;;;;;;;26.00;14.63;;;;;;;20.19;100.00;99801.75;1771340;80;21085;-69
2022/08/14 00:15:43;;;;;;;20.72;14.63;;;;;;;20.21;100.00;99807.82;1771189;80;21493;-68
2022/08/14 00:18:12;;;;;;;18.32;14.43;;;;;;;20.22;100.00;99800.64;1771065;80;21636;-67
2022/08/14 00:20:41;;;;;;;20.55;14.28;;;;;;;20.23;100.00;99807.21;1771090;81;21037;-68
2022/08/14 00:23:08;;;;;;;21.80;14.05;;;;;;;20.24;100.00;99806.22;1771351;80;21506;-69
2022/08/14 00:25:36;;;;;;;22.27;14.30;;;;;;;20.25;100.00;99805.27;1770904;80;20994;-68
2022/08/14 00:28:04;;;;;;;23.83;14.13;;;;;;;20.29;100.00;99810.73;1771217;80;21103;-68
2022/08/14 00:30:31;;;;;;;24.55;14.63;;;;;;;20.30;100.00;99808.40;1749373;81;21044;-68
2022/08/14 00:32:58;;;;;;;19.98;13.80;;;;;;;20.32;100.00;99811.80;1771065;81;21045;-68
2022/08/14 00:35:24;;;;;;;20.48;13.85;;;;;;;20.35;100.00;99811.19;1770758;81;21106;-69
2022/08/14 00:37:51;;;;;;;21.12;13.88;;;;;;;20.34;100.00;99809.01;1770843;81;21101;-69
2022/08/14 00:40:18;;;;;;;18.05;13.53;;;;;;;20.35;100.00;99809.85;1770759;80;21069;-68
2022/08/14 00:42:45;;;;;;;26.12;14.63;;;;;;;20.33;100.00;99802.78;1771016;80;21013;-68
2022/08/14 00:45:13;;;;;;;18.17;13.65;;;;;;;20.30;100.00;99805.72;1770783;80;21025;-68
2022/08/14 00:47:42;;;;;;;17.07;13.38;;;;;;;20.29;100.00;99806.72;1770891;81;21236;-67
2022/08/14 00:50:10;;;;;;;16.85;13.62;;;;;;;20.29;100.00;99802.70;1770956;80;21022;-68
2022/08/14 00:52:37;;;;;;;25.40;14.15;;;;;;;20.27;100.00;99796.63;1768362;81;21545;-68
2022/08/14 00:55:09;;;;;;;20.43;13.70;;;;;;;20.27;100.00;99801.98;1740441;82;21059;-68
2022/08/14 00:57:35;;;;;;;23.95;13.35;;;;;;;20.27;100.00;99795.30;1740260;82;21068;-68
2022/08/14 01:00:07;;;;;;;20.27;12.78;;;;;;;20.29;100.00;99798.69;1740280;82;21167;-68
2022/08/14 01:02:34;;;;;;;20.70;12.85;;;;;;;20.31;100.00;99799.42;1740303;82;21329;-68
2022/08/14 01:05:06;;;;;;;17.42;12.82;;;;;;;20.33;100.00;99802.78;1740098;82;21016;-68
2022/08/14 01:07:29;;;;;;;21.48;12.82;;;;;;;20.33;100.00;99792.58;1739917;82;21013;-68
2022/08/14 01:10:00;;;;;;;22.70;12.70;;;;;;;20.33;100.00;99786.74;1740422;82;21049;-67
2022/08/14 01:12:28;;;;;;;20.60;12.35;;;;;;;20.33;100.00;99794.77;1740441;82;21900;-68
2022/08/14 01:14:56;;;;;;;16.55;12.25;;;;;;;20.33;100.00;99789.41;1740170;82;21541;-67
2022/08/14 01:21:02;;;;;;;17.95;12.50;;;;;;;20.33;100.00;99784.06;1740193;82;21032;-68
2022/08/14 01:22:37;;;;;;;18.50;11.83;;;;;;;20.36;100.00;99798.16;1740270;82;21060;-68
2022/08/14 01:25:06;;;;;;;18.65;12.30;;;;;;;20.38;100.00;99796.21;1740170;82;21744;-68
2022/08/14 01:27:34;;;;;;;23.15;12.30;;;;;;;20.39;100.00;99793.92;1740307;82;21080;-69
2022/08/14 01:30:02;;;;;;;21.02;12.25;;;;;;;20.40;100.00;99792.43;1740180;82;21048;-68
2022/08/14 01:32:29;;;;;;;20.27;11.80;;;;;;;20.40;100.00;99795.10;1760867;81;21045;-69
2022/08/14 01:34:55;;;;;;;14.80;11.60;;;;;;;20.41;100.00;99787.95;1770977;80;21064;-68
2022/08/14 01:37:24;;;;;;;19.07;12.28;;;;;;;20.43;100.00;99794.00;1771076;81;21703;-69
2022/08/14 01:39:51;;;;;;;16.12;10.93;;;;;;;20.44;100.00;99798.39;1771127;81;21025;-68
2022/08/14 01:42:18;;;;;;;21.68;12.18;;;;;;;20.43;100.00;99794.87;1771118;81;21085;-69
2022/08/14 01:44:50;;;;;;;20.65;11.38;;;;;;;20.44;100.00;99795.22;1771052;81;21055;-67
2022/08/14 01:47:15;;;;;;;15.72;11.95;;;;;;;20.44;100.00;99790.36;1771141;80;21162;-70
2022/08/14 01:49:41;;;;;;;25.77;12.05;;;;;;;20.46;100.00;99794.60;1770957;81;21251;-68
2022/08/14 01:52:09;;;;;;;16.80;11.53;;;;;;;20.48;100.00;99789.14;1771058;80;21085;-68
2022/08/14 01:54:37;;;;;;;14.90;11.08;;;;;;;20.48;100.00;99790.47;1770819;80;21069;-68
2022/08/14 01:57:09;;;;;;;21.77;11.68;;;;;;;20.45;100.00;99792.05;1771137;81;21092;-68
2022/08/14 01:59:36;;;;;;;19.70;11.33;;;;;;;20.44;100.00;99783.67;1770705;80;21022;-68
2022/08/14 02:02:11;;;;;;;19.10;11.40;;;;;;;20.44;100.00;99790.36;1770840;81;21205;-68
2022/08/14 02:04:35;;;;;;;14.85;10.82;;;;;;;20.42;100.00;99793.16;1770271;80;21041;-68
2022/08/14 02:07:03;;;;;;;22.32;12.07;;;;;;;20.41;100.00;99793.30;1770756;81;21045;-68
2022/08/14 02:09:36;;;;;;;18.60;12.15;;;;;;;20.40;100.00;99794.27;1770446;80;21076;-69
2022/08/14 02:12:07;;;;;;;19.60;10.65;;;;;;;20.39;100.00;99797.93;1770122;80;21649;-70
2022/08/14 02:14:34;;;;;;;17.95;11.50;;;;;;;20.39;100.00;99797.44;1766277;81;21199;-68
2022/08/14 02:17:01;;;;;;;14.68;11.40;;;;;;;20.39;100.00;99800.60;1766520;81;21014;-69
2022/08/14 02:19:30;;;;;;;19.35;10.95;;;;;;;20.36;100.00;99803.51;1766632;81;21096;-68
2022/08/14 02:21:58;;;;;;;15.88;10.58;;;;;;;20.35;100.00;99803.16;1766252;81;21013;-68
2022/08/14 02:24:28;;;;;;;18.87;11.15;;;;;;;20.33;100.00;99802.78;1724773;83;21058;-68
2022/08/14 02:26:58;;;;;;;22.55;10.93;;;;;;;20.33;100.00;99800.11;1766496;80;21040;-68
2022/08/14 02:29:28;;;;;;;16.93;10.93;;;;;;;20.30;100.00;99801.71;1766648;81;20990;-68
2022/08/14 02:31:56;;;;;;;13.93;10.60;;;;;;;20.30;100.00;99803.55;1766233;81;20978;-69
2022/08/14 02:34:35;;;;;;;16.42;10.50;;;;;;;20.27;100.00;99799.80;1766596;81;21536;-69
2022/08/14 02:37:08;;;;;;;15.05;11.28;;;;;;;20.25;100.00;99805.27;1766511;81;21021;-67
2022/08/14 02:39:42;;;;;;;19.45;11.03;;;;;;;20.22;100.00;99797.51;1700018;83;21136;-69
2022/08/14 02:42:14;;;;;;;17.20;10.95;;;;;;;20.22;100.00;99800.64;1766369;81;21498;-68
2022/08/14 02:44:43;;;;;;;15.40;11.05;;;;;;;20.21;100.00;99805.14;1766405;81;21030;-70
2022/08/14 02:47:10;;;;;;;22.10;11.88;;;;;;;20.21;100.00;99805.64;1766375;81;21053;-67
2022/08/14 02:49:36;;;;;;;17.10;10.82;;;;;;;20.18;100.00;99798.73;1766713;81;21038;-67
2022/08/14 02:52:06;;;;;;;16.60;10.60;;;;;;;20.17;100.00;99806.86;1766540;81;21199;-68
2022/08/14 02:54:34;;;;;;;13.40;10.20;;;;;;;20.14;100.00;99801.28;1766667;81;21013;-67
2022/08/14 02:57:04;;;;;;;13.75;10.93;;;;;;;20.12;100.00;99800.06;1766629;81;21021;-67
2022/08/14 02:59:30;;;;;;;19.60;11.12;;;;;;;20.12;100.00;99805.91;1766334;81;21013;-68
2022/08/14 03:01:57;;;;;;;14.25;10.70;;;;;;;20.11;100.00;99801.55;1766544;81;21017;-68
2022/08/14 03:04:25;;;;;;;14.58;11.28;;;;;;;20.09;100.00;99799.48;1766478;81;21074;-68
2022/08/14 03:06:51;;;;;;;13.28;10.32;;;;;;;20.08;100.00;99800.44;1724621;83;21098;-68
2022/08/14 03:09:18;;;;;;;16.52;10.95;;;;;;;20.05;100.00;99792.19;1766569;80;20995;-69
2022/08/14 03:11:45;;;;;;;17.95;10.93;;;;;;;20.04;100.00;99799.02;1724876;83;21116;-68
2022/08/14 03:14:12;;;;;;;17.48;10.80;;;;;;;20.04;100.00;99797.19;1770420;80;21028;-67
2022/08/14 03:16:40;;;;;;;17.45;10.70;;;;;;;20.03;100.00;99794.63;1771050;81;21212;-67
2022/08/14 03:19:08;;;;;;;15.98;11.00;;;;;;;20.04;100.00;99796.34;1770764;81;21013;-68
2022/08/14 03:21:36;;;;;;;22.00;11.40;;;;;;;20.04;100.00;99799.02;1771137;81;21060;-69
2022/08/14 03:24:09;;;;;;;16.10;10.60;;;;;;;20.01;100.00;99804.09;1770852;81;21033;-68
2022/08/14 03:26:35;;;;;;;19.77;11.00;;;;;;;20.02;100.00;99800.97;1770860;81;21065;-68
2022/08/14 03:29:03;;;;;;;19.55;11.15;;;;;;;20.01;100.00;99808.60;1771008;81;21212;-68
2022/08/14 03:31:30;;;;;;;13.03;10.93;;;;;;;20.01;100.00;99805.93;1770812;80;21486;-68
2022/08/14 03:33:57;;;;;;;15.00;11.40;;;;;;;20.00;100.00;99805.58;1770824;81;21654;-68
2022/08/14 03:36:24;;;;;;;20.00;10.48;;;;;;;19.98;100.00;99802.18;1770719;80;21049;-67
2022/08/14 03:38:52;;;;;;;21.02;11.10;;;;;;;19.97;100.00;99805.34;1771218;81;21025;-68
2022/08/14 03:41:24;;;;;;;16.80;10.72;;;;;;;19.96;100.00;99802.30;1770840;81;21035;-68
2022/08/14 03:43:58;;;;;;;;;;;;;;;19.97;100.00;99805.81;1773804;81;21061;-68
2022/08/14 03:46:26;;;;;;;14.63;10.70;;;;;;;19.97;100.00;99808.48;1771071;80;20544;-67
2022/08/14 03:48:54;;;;;;;21.87;11.30;;;;;;;19.97;100.00;99805.81;1771221;81;21022;-69
2022/08/14 03:51:21;;;;;;;19.27;10.45;;;;;;;19.99;100.00;99803.86;1770878;81;21029;-69
2022/08/14 03:53:52;;;;;;;20.90;10.82;;;;;;;20.03;100.00;99805.32;1771522;80;21164;-68
2022/08/14 03:56:19;;;;;;;16.82;10.85;;;;;;;20.05;100.00;99811.39;1770800;80;21041;-67
2022/08/14 03:58:49;;;;;;;16.27;10.55;;;;;;;20.07;100.00;99811.63;1770893;80;21056;-69
2022/08/14 04:01:22;;;;;;;15.77;11.50;;;;;;;20.09;100.00;99814.19;1771556;80;20990;-68
2022/08/14 04:03:50;;;;;;;20.92;11.25;;;;;;;20.11;100.00;99817.59;1770836;81;21103;-68
2022/08/14 04:06:19;;;;;;;14.00;10.75;;;;;;;20.12;100.00;99816.10;1770996;81;21110;-68
2022/08/14 04:08:46;;;;;;;20.55;10.68;;;;;;;20.15;100.00;99813.66;1770933;81;21025;-68
2022/08/14 04:11:14;;;;;;;15.00;11.03;;;;;;;20.17;100.00;99809.04;1770733;81;21029;-68
2022/08/14 04:13:41;;;;;;;15.78;10.98;;;;;;;20.21;100.00;99803.81;1774123;80;21017;-69
2022/08/14 04:16:10;;;;;;;16.02;10.90;;;;;;;20.24;100.00;99808.89;1777008;80;21048;-68
2022/08/14 04:18:42;;;;;;;25.05;12.33;;;;;;;20.27;100.00;99797.97;1776469;80;21103;-69
2022/08/14 04:21:09;;;;;;;19.87;10.55;;;;;;;20.30;100.00;99801.71;1776810;80;21061;-68
2022/08/14 04:23:36;;;;;;;20.45;11.38;;;;;;;20.33;100.00;99800.11;1776588;80;21548;-67
2022/08/14 04:26:04;;;;;;;20.70;10.75;;;;;;;20.35;100.00;99798.66;1776744;80;21529;-68
2022/08/14 04:28:31;;;;;;;17.70;11.65;;;;;;;20.37;100.00;99796.70;1776374;80;21552;-69
2022/08/14 04:30:58;;;;;;;15.83;11.10;;;;;;;20.38;100.00;99794.87;1776547;80;21536;-70
2022/08/14 04:33:24;;;;;;;15.72;11.05;;;;;;;20.41;100.00;99790.63;1776419;80;21529;-70
2022/08/14 04:35:51;;;;;;;14.73;10.60;;;;;;;20.43;100.00;99783.30;1776389;80;22195;-69
2022/08/14 04:43:51;;;;;;;15.53;11.08;;;;;;;20.38;100.00;99781.50;1737339;82;21121;-70
2022/08/14 04:46:21;;;;;;;20.85;10.82;;;;;;;20.39;100.00;99784.56;1737041;82;21046;-70
2022/08/14 04:48:49;;;;;;;21.45;11.75;;;;;;;20.38;100.00;99781.01;1737447;82;21054;-70
2022/08/14 04:51:19;;;;;;;23.45;11.83;;;;;;;20.40;100.00;99786.23;1736995;82;21086;-70
2022/08/14 04:53:47;;;;;;;17.27;10.80;;;;;;;20.42;100.00;99776.27;1737378;82;21097;-70
2022/08/14 04:56:17;;;;;;;14.73;11.10;;;;;;;20.46;100.00;99779.05;1737035;82;21593;-69
2022/08/14 04:58:46;;;;;;;15.53;11.97;;;;;;;20.50;100.00;99780.00;1736919;82;21597;-70
2022/08/14 05:01:13;;;;;;;18.15;11.38;;;;;;;20.58;100.00;99782.05;1736914;82;21113;-69
2022/08/14 05:03:41;;;;;;;18.45;11.85;;;;;;;20.67;100.00;99787.13;1710331;82;21059;-68
2022/08/14 05:06:09;;;;;;;13.80;11.03;;;;;;;20.74;100.00;99783.78;1736930;82;21062;-69
2022/08/14 05:08:36;;;;;;;15.43;11.40;;;;;;;20.82;100.00;99780.48;1737300;82;21495;-69
2022/08/14 05:11:06;;;;;;;17.80;12.50;;;;;;;20.97;100.00;99783.66;1736941;82;21540;-68
2022/08/14 05:13:35;;;;;;;19.15;12.37;;;;;;;21.10;100.00;99779.44;1728139;82;21042;-69
2022/08/14 05:16:03;;;;;;;18.75;12.20;;;;;;;21.28;100.00;99788.55;1713659;82;21026;-68
2022/08/14 05:18:33;;;;;;;18.00;11.63;;;;;;;21.47;100.00;99789.66;1713708;83;21034;-68
2022/08/14 05:21:03;;;;;;;16.70;11.70;;;;;;;21.69;100.00;99788.59;1714212;83;21144;-69
2022/08/14 05:23:33;;;;;;;17.35;12.88;;;;;;;21.89;97.31;99792.17;1713882;83;21035;-70
2022/08/14 05:26:01;;;;;;;18.95;11.50;;;;;;;22.06;96.63;99785.28;1713890;83;21049;-67
2022/08/14 05:28:31;;;;;;;17.02;10.95;;;;;;;22.23;94.47;99795.87;1713431;82;21745;-68
2022/08/14 05:31:01;;;;;;;18.80;11.03;;;;;;;22.35;93.88;99799.60;1713930;82;21054;-70
2022/08/14 05:33:31;;;;;;;17.62;10.88;;;;;;;22.49;92.96;99797.49;1713508;82;21658;-68
2022/08/14 05:36:00;;;;;;;16.75;10.60;;;;;;;22.59;92.00;99787.59;1714091;83;21030;-69
2022/08/14 05:38:32;;;;;;;16.23;10.90;;;;;;;22.71;90.40;99787.81;1713598;82;21099;-67
2022/08/14 05:41:01;;;;;;;17.60;11.65;;;;;;;22.83;88.51;99787.16;1714131;82;21067;-69
2022/08/14 05:43:31;;;;;;;16.02;11.75;;;;;;;22.91;88.52;99781.05;1713539;82;21062;-68
2022/08/14 05:45:59;;;;;;;14.80;11.35;;;;;;;22.98;87.44;99785.72;1714005;82;21038;-68
2022/08/14 05:48:26;;;;;;;17.92;11.30;;;;;;;23.09;86.31;99780.69;1713603;83;21050;-69
2022/08/14 05:50:56;;;;;;;22.73;11.65;;;;;;;23.25;85.76;99780.07;1713921;82;20999;-69
2022/08/14 05:53:28;;;;;;;16.55;11.20;;;;;;;23.45;84.80;99774.97;1713664;83;21046;-70
2022/08/14 05:55:54;;;;;;;13.08;10.53;;;;;;;23.68;82.72;99775.09;1713982;83;21122;-68
2022/08/14 05:58:21;;;;;;;13.10;10.45;;;;;;;23.88;81.17;99774.02;1713618;83;21259;-69
2022/08/14 06:00:54;;;;;;;12.47;9.48;;;;;;;24.11;80.39;99777.12;1713601;83;21563;-68
2022/08/14 06:03:19;;;;;;;14.68;9.58;;;;;;;24.40;79.57;99775.53;1713245;82;21090;-68
2022/08/14 06:05:48;;;;;;;13.88;9.60;;;;;;;24.78;76.31;99774.00;1713579;83;21039;-71
2022/08/14 06:08:25;;;;;;;14.28;9.03;;;;;;;25.05;75.07;99775.71;1713898;83;21066;-69
2022/08/14 06:10:56;;;;;;;11.73;8.73;;;;;;;25.26;73.39;99774.88;1713847;82;21183;-69
2022/08/14 06:13:24;;;;;;;14.65;9.70;;;;;;;25.47;72.76;99773.64;1713906;82;28238;-71
2022/08/14 06:15:50;;;;;;;13.68;8.90;;;;;;;25.53;71.83;99774.31;1713684;83;21618;-70
2022/08/14 06:18:19;;;;;;;12.73;8.78;;;;;;;25.82;72.08;99766.34;1713556;82;21102;-68
2022/08/14 06:20:47;;;;;;;13.95;9.10;;;;;;;26.36;70.74;99768.14;1713684;82;21660;-71
2022/08/14 06:23:15;;;;;;;14.53;8.53;;;;;;;26.96;67.93;99773.23;1714002;83;21174;-69
2022/08/14 06:25:43;;;;;;;12.37;8.10;;;;;;;27.40;64.04;99771.46;1713784;83;21042;-69
2022/08/14 06:28:22;;;;;;;18.27;7.50;;;;;;;27.52;65.25;99767.86;1713953;83;21515;-70
2022/08/14 06:30:49;;;;;;;12.78;7.80;;;;;;;27.60;62.52;99771.87;1713743;83;21577;-69
2022/08/14 06:33:17;;;;;;;10.03;7.00;;;;;;;27.34;63.21;99777.55;1713970;83;21523;-70
2022/08/14 06:35:45;;;;;;;10.40;7.30;;;;;;;27.21;63.07;99773.20;1713841;82;21221;-70
2022/08/14 06:38:19;;;;;;;9.70;6.95;;;;;;;27.17;63.69;99778.57;1714137;82;21039;-68
2022/08/14 06:40:46;;;;;;;10.30;7.25;;;;;;;27.24;62.86;99770.16;1713695;83;21090;-69
2022/08/14 06:43:14;;;;;;;12.93;7.30;;;;;;;27.37;62.91;99774.49;1714133;83;21020;-70
2022/08/14 06:45:42;;;;;;;14.10;7.22;;;;;;;27.46;62.15;99771.77;1713672;83;21102;-70
2022/08/14 06:48:22;;;;;;;13.13;7.42;;;;;;;27.58;61.88;99775.28;1713876;82;21152;-70
2022/08/14 06:50:50;;;;;;;9.30;7.57;;;;;;;27.72;61.62;99776.41;1713646;82;21050;-69
2022/08/14 06:53:18;;;;;;;10.78;7.72;;;;;;;27.87;61.15;99770.27;1704120;83;21032;-70
2022/08/14 06:55:46;;;;;;;12.70;6.65;;;;;;;27.92;60.29;99774.11;1685001;85;21012;-71
2022/08/14 06:58:14;;;;;;;10.05;6.85;;;;;;;27.94;59.91;99776.66;1685075;83;21071;-71
2022/08/14 07:05:44;;;;;;;8.58;6.83;;;;;;;27.78;59.92;99774.33;1684947;85;21257;-70
2022/08/14 07:05:54;;;;;;;9.93;6.58;;;;;;;27.28;60.75;99774.70;1684820;85;21048;-69
2022/08/14 07:08:25;;;;;;;15.60;7.60;;;;;;;27.14;62.64;99775.71;1684961;85;21172;-69
2022/08/14 07:10:55;;;;;;;14.98;7.80;;;;;;;27.30;62.88;99769.45;1685132;84;21050;-69
2022/08/14 07:13:24;;;;;;;16.32;7.12;;;;;;;27.58;61.38;99767.66;1684894;84;21876;-70
2022/08/14 07:15:53;;;;;;;13.98;7.08;;;;;;;27.94;60.81;99763.13;1684809;85;21638;-69
2022/08/14 07:18:26;;;;;;;12.50;7.20;;;;;;;28.27;58.47;99768.31;1685014;85;21075;-70
2022/08/14 07:20:53;;;;;;;8.75;6.30;;;;;;;28.44;58.83;99771.25;1685079;84;21095;-69
2022/08/14 07:26:18;;;;;;;12.50;7.00;;;;;;;28.92;55.91;99762.38;1774585;79;23353;-71
2022/08/14 07:28:46;;;;;;;12.65;6.80;;;;;;;29.16;56.23;99770.79;1726231;83;21522;-70
2022/08/14 07:31:14;;;;;;;9.33;6.10;;;;;;;29.49;54.38;99769.91;1694316;84;21188;-70
2022/08/14 07:33:44;;;;;;;11.43;6.75;;;;;;;29.73;54.78;99777.96;1693813;84;21044;-71
2022/08/14 07:36:13;;;;;;;12.30;6.27;;;;;;;29.94;53.75;99775.81;1694332;84;20997;-71
2022/08/14 07:38:40;;;;;;;8.73;6.67;;;;;;;30.00;53.03;99771.81;1694007;84;22256;-71
2022/08/14 07:41:09;;;;;;;9.38;6.90;;;;;;;29.92;52.47;99767.84;1694075;84;21537;-71
2022/08/14 07:43:40;;;;;;;10.88;6.50;;;;;;;29.92;52.47;99767.84;1693933;84;21357;-70
2022/08/14 07:46:06;;;;;;;11.70;7.25;;;;;;;30.06;52.20;99770.19;1693939;84;20913;-70
2022/08/14 07:48:39;;;;;;;11.45;6.20;;;;;;;30.17;51.61;99767.50;1693785;84;21619;-70
2022/08/14 07:51:07;;;;;;;9.50;6.58;;;;;;;30.10;52.11;99766.90;1693973;84;21592;-70
2022/08/14 07:53:34;;;;;;;11.95;7.05;;;;;;;30.54;51.98;99773.20;1703714;83;21032;-70
2022/08/14 07:56:00;;;;;;;10.32;6.67;;;;;;;30.54;51.98;99773.20;1720547;83;21729;-69
2022/08/14 07:58:27;;;;;;;10.58;6.62;;;;;;;30.73;52.27;99768.45;1720273;83;20979;-70
2022/08/14 08:00:56;;;;;;;11.08;6.50;;;;;;;31.07;50.48;99764.13;1720203;83;21056;-71
2022/08/14 08:03:26;;;;;;;10.70;7.00;;;;;;;31.29;49.88;99768.12;1720265;83;21608;-71
2022/08/14 08:05:52;;;;;;;12.28;6.42;;;;;;;31.23;50.67;99768.95;1720071;83;21021;-70
2022/08/14 08:08:19;;;;;;;11.03;6.70;;;;;;;31.23;49.03;99762.98;1720458;83;21196;-71
2022/08/14 08:10:48;;;;;;;12.35;6.12;;;;;;;31.08;49.12;99759.03;1720153;83;21045;-71
2022/08/14 08:13:18;;;;;;;10.30;6.28;;;;;;;31.02;49.49;99763.90;1720616;83;21021;-70
2022/08/14 08:15:55;;;;;;;10.40;5.70;;;;;;;31.21;49.02;99760.14;1720203;83;21061;-70
2022/08/14 08:18:22;;;;;;;7.83;5.78;;;;;;;31.43;48.74;99765.86;1712676;83;21099;-71
2022/08/14 08:20:53;;;;;;;9.50;6.65;;;;;;;31.66;48.37;99760.62;1691443;84;21108;-71
2022/08/14 08:23:21;;;;;;;14.00;6.25;;;;;;;31.55;48.19;99758.78;1691616;84;21064;-70
2022/08/14 08:25:51;;;;;;;11.75;6.55;;;;;;;31.64;48.40;99769.52;1688239;84;21084;-70
2022/08/14 08:28:22;;;;;;;9.98;6.20;;;;;;;31.86;47.29;99758.78;1687592;85;21056;-71
2022/08/14 08:30:59;;;;;;;8.08;6.20;;;;;;;31.86;47.19;99757.42;1687035;85;21115;-70
2022/08/14 08:33:29;;;;;;;11.25;6.35;;;;;;;31.98;46.86;99769.98;1687325;85;21763;-71
2022/08/14 08:36:00;;;;;;;11.43;6.17;;;;;;;31.88;47.52;99755.88;1686772;85;21069;-70
2022/08/14 08:38:28;;;;;;;8.23;6.22;;;;;;;31.93;46.98;99749.28;1690966;84;21099;-70
2022/08/14 08:40:57;;;;;;;7.33;5.85;;;;;;;32.09;46.70;99756.27;1690956;84;21073;-70
2022/08/14 08:43:32;;;;;;;10.25;6.17;;;;;;;32.30;46.12;99753.89;1666466;84;21119;-69
2022/08/14 08:46:04;;;;;;;10.60;6.55;;;;;;;32.38;45.12;99761.88;1691140;84;21112;-69
2022/08/14 08:48:55;;;;;;;12.18;6.20;;;;;;;32.29;45.42;99763.95;1691389;84;21001;-69
2022/08/14 08:51:37;;;;;;;14.35;6.15;;;;;;;32.36;44.98;99753.91;1691161;84;21112;-71
2022/08/14 08:54:11;;;;;;;8.58;5.65;;;;;;;32.54;44.65;99748.41;1691414;84;21060;-71
2022/08/14 08:56:53;;;;;;;11.43;6.08;;;;;;;32.72;44.32;99762.77;1691019;84;21159;-70
2022/08/14 08:59:27;;;;;;;8.60;5.80;;;;;;;32.64;44.83;99750.70;1690340;84;21140;-69
2022/08/14 09:02:06;;;;;;;10.93;5.50;;;;;;;32.76;44.93;99749.87;1690766;84;21068;-70
2022/08/14 09:04:40;;;;;;;11.50;5.90;;;;;;;33.02;44.39;99733.16;1691121;84;21085;-70
2022/08/14 09:07:07;;;;;;;9.90;6.15;;;;;;;33.30;42.97;99727.97;1691002;84;21352;-70
2022/08/14 09:09:49;;;;;;;22.32;6.10;;;;;;;33.08;42.14;99733.68;1691423;84;21108;-69
2022/08/14 09:12:06;;;;;;;10.40;5.75;;;;;;;33.07;41.93;99731.19;1688118;84;21158;-70
2022/08/14 09:14:35;;;;;;;7.45;5.58;;;;;;;32.97;41.48;99735.69;1691082;84;21036;-69
2022/08/14 09:17:04;;;;;;;16.42;5.87;;;;;;;33.12;42.18;99728.11;1691091;84;21099;-70
2022/08/14 09:19:31;;;;;;;12.70;5.70;;;;;;;33.13;41.99;99727.08;1691135;84;21053;-70
2022/08/14 09:22:00;;;;;;;7.00;5.22;;;;;;;33.02;41.54;99720.35;1691086;84;21056;-71
2022/08/14 09:24:29;;;;;;;13.53;5.78;;;;;;;32.93;41.52;99717.53;1691200;84;21131;-70
2022/08/14 09:26:56;;;;;;;11.38;5.70;;;;;;;32.88;42.57;99722.80;1685748;85;21021;-72
2022/08/14 09:29:22;;;;;;;10.55;5.80;;;;;;;33.12;40.85;99721.30;1685702;85;21056;-70
2022/08/14 09:31:54;;;;;;;13.15;5.72;;;;;;;33.18;40.45;99717.72;1685733;85;21127;-71
2022/08/14 09:34:51;;;;;;;8.40;5.22;;;;;;;33.07;40.79;99718.37;1685724;85;21065;-70
2022/08/14 09:37:32;;;;;;;11.80;5.45;;;;;;;32.93;40.73;99727.61;1685707;85;21128;-69
2022/08/14 09:40:28;;;;;;;10.82;5.28;;;;;;;32.59;40.70;99726.80;1658147;85;21096;-70
2022/08/14 09:43:20;;;;;;;8.50;4.92;;;;;;;32.59;40.91;99730.89;1685765;85;21080;-71
2022/08/14 09:45:49;;;;;;;8.95;5.15;;;;;;;32.58;41.13;99731.95;1685637;85;21064;-70
2022/08/14 09:48:19;;;;;;;9.80;5.17;;;;;;;32.49;41.28;99731.81;1686056;85;21122;-70
2022/08/14 09:50:51;;;;;;;;;;;;;;;32.40;41.83;99721.64;1688483;85;21220;-70
2022/08/14 09:53:37;;;;;;;13.50;5.95;;;;;;;32.44;41.16;99723.41;1687045;85;20529;-72
2022/08/14 09:56:08;;;;;;;10.58;5.60;;;;;;;32.21;41.66;99712.41;1664674;85;21112;-71
2022/08/14 09:58:42;;;;;;;8.60;4.95;;;;;;;32.10;42.12;99728.84;1664131;86;21058;-70
2022/08/14 10:01:18;;;;;;;8.70;5.25;;;;;;;32.04;42.03;99716.03;1663825;86;21042;-71
2022/08/14 10:03:54;;;;;;;15.70;5.50;;;;;;;32.09;42.91;99710.80;1664110;86;21106;-71
2022/08/14 10:06:26;;;;;;;11.70;6.40;;;;;;;32.35;41.66;99715.45;1663823;86;21136;-71
2022/08/14 10:09:00;;;;;;;12.55;6.58;;;;;;;32.34;42.31;99705.59;1664401;86;21684;-69
2022/08/14 10:11:36;;;;;;;9.23;5.92;;;;;;;32.49;41.54;99713.57;1655096;85;21525;-71
2022/08/14 10:14:15;;;;;;;11.33;5.50;;;;;;;32.32;42.13;99706.31;1672054;85;21140;-70
2022/08/14 10:16:49;;;;;;;10.85;6.35;;;;;;;32.49;42.01;99714.10;1671611;84;21222;-70
2022/08/14 10:19:21;;;;;;;10.35;7.30;;;;;;;32.54;41.08;99712.97;1671575;85;21069;-71
2022/08/14 10:22:02;;;;;;;12.18;5.67;;;;;;;32.57;41.73;99713.38;1671495;84;21585;-71
2022/08/14 10:24:32;;;;;;;14.00;6.05;;;;;;;32.67;41.32;99714.33;1671998;84;21113;-71
2022/08/14 10:27:02;;;;;;;15.90;6.03;;;;;;;32.58;42.18;99722.41;1667040;84;21590;-70
2022/08/14 10:29:37;;;;;;;12.15;5.67;;;;;;;32.28;42.39;99715.98;1718301;83;21135;-72
2022/08/14 10:32:05;;;;;;;11.08;5.62;;;;;;;32.03;43.34;99720.34;1717843;83;21053;-70
2022/08/14 10:34:37;;;;;;;10.05;5.37;;;;;;;31.71;43.44;99726.82;1717976;83;21068;-71
2022/08/14 10:37:15;;;;;;;10.23;5.35;;;;;;;31.27;44.60;99728.07;1718119;83;21084;-71
2022/08/14 10:39:59;;;;;;;11.08;5.72;;;;;;;31.28;43.49;99730.57;1718385;83;21076;-70
2022/08/14 10:42:39;;;;;;;12.73;5.10;;;;;;;31.19;43.99;99747.27;1717913;83;21272;-71
2022/08/14 10:45:22;;;;;;;13.70;5.05;;;;;;;31.15;43.81;99736.80;1718286;83;21116;-73
2022/08/14 10:47:53;;;;;;;9.55;4.58;;;;;;;31.30;44.39;99729.85;1715081;83;21080;-70
2022/08/14 10:50:34;;;;;;;8.35;5.08;;;;;;;31.51;43.64;99728.93;1718363;83;21035;-70
2022/08/14 10:53:04;;;;;;;9.53;4.97;;;;;;;31.70;42.53;99725.13;1718052;83;21031;-71
2022/08/14 10:55:38;;;;;;;9.63;5.25;;;;;;;31.83;41.99;99715.64;1683136;83;21044;-70
2022/08/14 10:58:10;;;;;;;12.35;5.28;;;;;;;31.87;42.51;99713.36;1718003;83;21088;-72
2022/08/14 11:00:35;;;;;;;10.88;4.95;;;;;;;31.95;42.49;99711.80;1718192;83;21016;-71
2022/08/14 11:03:08;;;;;;;11.50;5.47;;;;;;;32.16;42.07;99708.09;1717979;83;21060;-70
2022/08/14 11:05:47;;;;;;;7.37;5.12;;;;;;;32.02;42.21;99714.56;1718470;83;21059;-70
2022/08/14 11:08:18;;;;;;;16.05;5.78;;;;;;;31.90;43.75;99718.39;1718170;83;21155;-71
2022/08/14 11:10:56;;;;;;;;;;;;;;;31.95;42.85;99716.71;1720569;83;21068;-70
2022/08/14 11:13:45;;;;;;;6.28;5.05;;;;;;;31.82;42.95;99715.34;1717842;83;20454;-71
2022/08/14 11:16:14;;;;;;;14.83;5.37;;;;;;;31.93;43.09;99707.94;1733454;82;21570;-70
2022/08/14 11:18:46;;;;;;;9.25;5.75;;;;;;;32.24;42.46;99722.88;1729619;81;21600;-71
2022/08/14 11:21:19;;;;;;;12.53;5.58;;;;;;;32.12;42.69;99721.83;1727243;83;21235;-71
2022/08/14 11:23:48;;;;;;;13.80;5.58;;;;;;;31.82;43.27;99724.88;1727260;83;21047;-71
2022/08/14 11:26:19;;;;;;;9.25;5.45;;;;;;;31.56;44.22;99721.52;1727380;83;21103;-71
2022/08/14 11:28:48;;;;;;;10.70;5.50;;;;;;;31.40;44.26;99719.95;1727114;83;21036;-72
2022/08/14 11:31:19;;;;;;;16.07;5.62;;;;;;;31.29;44.97;99713.23;1727334;83;21131;-71
2022/08/14 11:33:56;;;;;;;9.93;4.80;;;;;;;31.34;45.69;99712.62;1727063;83;21241;-71
2022/08/14 11:36:22;;;;;;;9.23;5.25;;;;;;;31.45;45.27;99714.80;1727407;83;21560;-71
2022/08/14 11:38:49;;;;;;;10.45;5.42;;;;;;;31.50;45.08;99708.22;1727367;83;21726;-71
2022/08/14 11:41:15;;;;;;;9.13;5.10;;;;;;;31.62;44.86;99710.36;1727695;83;21549;-72
2022/08/14 11:43:44;;;;;;;12.07;5.58;;;;;;;31.69;43.16;99716.12;1727423;83;21060;-71
2022/08/14 11:46:12;;;;;;;11.90;5.60;;;;;;;31.56;43.09;99710.13;1727313;83;21892;-71